Time;durP1;ratioP1;P1;durP2;ratioP2;P2;SDS_P1;SDS_P2;PMS_P1;PMS_P2;Temp;Humidity;BMP_temperature;BMP_pressure;BME280_temperature;BME280_humidity;BME280_pressure;Samples;Min_cycle;Max_cycle;Signal;HPM_P1;HPM_P2
2023/01/20 00:01:45;;;;;;;10.13;5.07;;;-2.20;99.90;;;;;;4953512;28;20145;-63
2023/01/20 00:04:12;;;;;;;8.32;5.63;;;-2.30;99.90;;;;;;4952224;28;20157;-66
2023/01/20 00:06:39;;;;;;;6.93;4.97;;;-2.30;99.90;;;;;;4956755;28;20051;-63
2023/01/20 00:09:07;;;;;;;6.75;5.32;;;-2.30;99.90;;;;;;4954300;28;20047;-63
2023/01/20 00:11:33;;;;;;;12.40;6.43;;;-2.30;99.90;;;;;;4952008;28;20061;-67
2023/01/20 00:14:01;;;;;;;9.98;6.22;;;-2.40;99.90;;;;;;4961877;28;20900;-64
2023/01/20 00:16:30;;;;;;;8.63;7.05;;;-2.40;99.90;;;;;;4955905;28;20474;-66
2023/01/20 00:18:57;;;;;;;6.70;4.82;;;-2.40;99.90;;;;;;4951439;28;20058;-64
2023/01/20 00:21:24;;;;;;;8.35;5.43;;;-2.50;99.90;;;;;;4951465;28;20448;-64
2023/01/20 00:23:51;;;;;;;6.53;4.78;;;-2.50;99.90;;;;;;4946168;28;20051;-63
2023/01/20 00:26:20;;;;;;;14.80;6.25;;;-2.50;99.90;;;;;;4950385;28;20039;-63
2023/01/20 00:28:48;;;;;;;8.50;3.90;;;-2.50;99.90;;;;;;4947289;28;20051;-67
2023/01/20 00:31:16;;;;;;;8.38;5.57;;;-2.50;99.90;;;;;;4956480;28;20051;-66
2023/01/20 00:33:44;;;;;;;8.88;5.38;;;-2.50;99.90;;;;;;4957140;28;20051;-63
2023/01/20 00:36:12;;;;;;;8.32;5.95;;;-2.50;99.90;;;;;;4956459;28;20055;-66
2023/01/20 00:38:39;;;;;;;9.57;5.97;;;-2.50;99.90;;;;;;4955019;28;20044;-66
2023/01/20 00:41:07;;;;;;;8.13;6.20;;;-2.50;99.90;;;;;;4950629;28;20051;-69
2023/01/20 00:43:35;;;;;;;13.35;6.53;;;-2.50;99.90;;;;;;4953329;28;20146;-66
2023/01/20 00:46:02;;;;;;;9.50;6.43;;;-2.50;99.90;;;;;;4952765;28;20050;-65
2023/01/20 00:48:29;;;;;;;8.68;6.10;;;-2.50;99.90;;;;;;4956161;28;20050;-64
2023/01/20 00:50:57;;;;;;;10.85;6.30;;;-2.50;99.90;;;;;;4957537;28;20102;-64
2023/01/20 00:53:24;;;;;;;10.23;6.53;;;-2.50;99.90;;;;;;4951564;28;20457;-65
2023/01/20 00:55:50;;;;;;;14.98;7.00;;;-2.50;99.90;;;;;;4952025;28;20054;-65
2023/01/20 00:58:17;;;;;;;11.20;7.10;;;-2.50;99.90;;;;;;4955243;28;20050;-63
2023/01/20 01:00:49;;;;;;;10.85;7.53;;;-2.50;99.90;;;;;;4953326;28;20055;-66
2023/01/20 01:03:17;;;;;;;7.00;5.95;;;-2.50;99.90;;;;;;4954497;28;20051;-69
2023/01/20 01:05:44;;;;;;;10.82;6.93;;;-2.50;99.90;;;;;;4951155;28;21161;-64
2023/01/20 01:08:12;;;;;;;9.23;6.10;;;-2.50;99.90;;;;;;4955098;28;20810;-67
2023/01/20 01:10:39;;;;;;;10.00;7.63;;;-2.50;99.90;;;;;;4953981;28;20545;-66
2023/01/20 01:13:07;;;;;;;11.52;8.27;;;-2.40;99.90;;;;;;4953154;28;20047;-63
2023/01/20 01:15:34;;;;;;;14.18;7.40;;;-2.40;99.90;;;;;;4954793;28;20078;-66
2023/01/20 01:18:02;;;;;;;10.00;6.30;;;-2.40;99.90;;;;;;4954014;28;20113;-69
2023/01/20 01:20:29;;;;;;;12.13;7.35;;;-2.40;99.90;;;;;;4958660;28;20110;-67
2023/01/20 01:22:56;;;;;;;10.70;6.55;;;-2.40;99.90;;;;;;4958380;28;20053;-63
2023/01/20 01:25:23;;;;;;;9.43;6.53;;;-2.40;99.90;;;;;;4954146;28;20453;-66
2023/01/20 01:27:50;;;;;;;9.52;7.25;;;-2.40;99.90;;;;;;4951382;28;20458;-64
2023/01/20 01:30:17;;;;;;;11.95;7.18;;;-2.30;99.90;;;;;;4961644;28;20051;-63
2023/01/20 01:32:43;;;;;;;11.43;7.53;;;-2.30;99.90;;;;;;4951068;28;20502;-67
2023/01/20 01:35:10;;;;;;;13.02;7.00;;;-2.30;99.90;;;;;;4957664;28;20490;-66
2023/01/20 01:37:38;;;;;;;9.05;7.28;;;-2.30;99.90;;;;;;4959666;28;20151;-67
2023/01/20 01:40:05;;;;;;;10.30;7.85;;;-2.30;99.90;;;;;;4956232;28;20126;-66
2023/01/20 01:42:32;;;;;;;15.50;7.13;;;-2.30;99.90;;;;;;4960607;28;20086;-66
2023/01/20 01:45:08;;;;;;;9.55;7.00;;;-2.30;99.90;;;;;;4954996;28;20043;-66
2023/01/20 01:47:45;;;;;;;10.45;7.65;;;-2.30;99.90;;;;;;4954560;28;20046;-65
2023/01/20 01:50:18;;;;;;;9.75;7.35;;;-2.30;99.90;;;;;;4952861;28;20480;-63
2023/01/20 01:52:48;;;;;;;12.75;8.23;;;-2.30;99.90;;;;;;4958248;28;20039;-66
2023/01/20 01:55:16;;;;;;;9.00;5.60;;;-2.30;99.90;;;;;;4953523;28;20131;-65
2023/01/20 01:57:43;;;;;;;10.45;7.57;;;-2.30;99.90;;;;;;4953934;28;20065;-63
2023/01/20 02:00:11;;;;;;;9.82;6.45;;;-2.30;99.90;;;;;;4955126;28;20043;-63
2023/01/20 02:02:42;;;;;;;;;;;-2.30;99.90;;;;;;4956470;28;20043;-63
2023/01/20 02:05:11;;;;;;;12.38;7.90;;;-2.30;99.90;;;;;;4951332;28;20287;-65
2023/01/20 02:07:41;;;;;;;10.85;7.25;;;-2.30;99.90;;;;;;4952295;28;20055;-66
2023/01/20 02:10:08;;;;;;;8.40;7.53;;;-2.30;99.90;;;;;;4954870;28;20051;-64
2023/01/20 02:12:35;;;;;;;14.07;7.45;;;-2.20;99.90;;;;;;4955280;28;20046;-64
2023/01/20 02:15:04;;;;;;;12.80;8.15;;;-2.30;99.90;;;;;;4950974;28;20047;-69
2023/01/20 02:17:32;;;;;;;10.50;7.47;;;-2.20;99.90;;;;;;4958934;28;20051;-63
2023/01/20 02:20:15;;;;;;;11.73;7.97;;;-2.20;99.90;;;;;;4946340;28;20046;-70
2023/01/20 02:23:09;;;;;;;11.43;7.30;;;-2.20;99.90;;;;;;4955409;28;20042;-67
2023/01/20 02:26:03;;;;;;;16.88;8.05;;;-2.20;99.90;;;;;;4956292;28;20457;-63
2023/01/20 02:28:45;;;;;;;20.33;7.88;;;-2.10;99.90;;;;;;4951404;28;20049;-63
2023/01/20 02:31:49;;;;;;;9.25;6.97;;;-2.10;99.90;;;;;;4953823;28;20051;-63
2023/01/20 02:34:30;;;;;;;11.77;7.72;;;-2.10;99.90;;;;;;4951211;28;20046;-66
2023/01/20 02:37:05;;;;;;;12.40;7.25;;;-2.00;99.90;;;;;;4954032;28;20426;-68
2023/01/20 02:39:54;;;;;;;15.10;7.47;;;-2.00;99.90;;;;;;4954609;28;20492;-64
2023/01/20 02:42:33;;;;;;;11.48;7.32;;;-1.90;99.90;;;;;;4955688;28;20180;-67
2023/01/20 02:45:26;;;;;;;11.77;7.13;;;-1.90;99.90;;;;;;4959587;28;20047;-64
2023/01/20 02:48:24;;;;;;;12.13;6.78;;;-1.90;99.90;;;;;;4942740;28;20072;-62
2023/01/20 02:50:58;;;;;;;10.85;6.88;;;-1.90;99.90;;;;;;4948062;28;20050;-64
2023/01/20 02:53:31;;;;;;;12.18;7.60;;;-1.90;99.90;;;;;;4946517;28;20178;-64
2023/01/20 02:55:58;;;;;;;11.98;6.45;;;-1.90;99.90;;;;;;4950218;28;20139;-69
2023/01/20 02:58:36;;;;;;;12.98;6.50;;;-1.90;99.90;;;;;;4953594;28;20054;-64
2023/01/20 03:01:12;;;;;;;12.65;7.45;;;-1.90;99.90;;;;;;4947675;28;20538;-62
2023/01/20 03:03:44;;;;;;;11.30;6.65;;;-1.90;99.90;;;;;;4956452;28;20066;-60
2023/01/20 03:06:17;;;;;;;13.20;7.35;;;-2.00;99.90;;;;;;4953749;28;20051;-63
2023/01/20 03:08:47;;;;;;;12.02;7.38;;;-2.00;99.90;;;;;;4950007;28;20110;-61
2023/01/20 03:11:15;;;;;;;9.85;6.13;;;-2.00;99.90;;;;;;4952616;28;20046;-62
2023/01/20 03:14:10;;;;;;;10.00;6.32;;;-2.00;99.90;;;;;;4946562;28;20180;-60
2023/01/20 03:16:38;;;;;;;8.88;6.03;;;-2.00;99.90;;;;;;4952364;28;20051;-61
2023/01/20 03:19:05;;;;;;;8.10;5.97;;;-2.00;99.90;;;;;;4952067;28;20054;-61
2023/01/20 03:21:33;;;;;;;10.30;6.32;;;-1.90;99.90;;;;;;4956643;28;20130;-60
2023/01/20 03:24:02;;;;;;;9.75;7.00;;;-2.00;99.90;;;;;;4949573;28;20486;-63
2023/01/20 03:26:29;;;;;;;9.77;6.72;;;-1.90;99.90;;;;;;4952919;28;20055;-62
2023/01/20 03:28:57;;;;;;;13.52;6.35;;;-2.00;99.90;;;;;;4955597;28;20046;-60
2023/01/20 03:31:31;;;;;;;11.75;7.78;;;-1.90;99.90;;;;;;4946024;28;20130;-61
2023/01/20 03:34:02;;;;;;;8.68;6.45;;;-1.90;99.90;;;;;;4947261;28;20055;-62
2023/01/20 03:36:30;;;;;;;11.15;6.30;;;-1.90;99.90;;;;;;4946941;28;20075;-61
2023/01/20 03:38:58;;;;;;;9.50;6.57;;;-1.90;99.90;;;;;;4950769;28;20055;-66
2023/01/20 03:41:46;;;;;;;9.48;5.20;;;-1.90;99.90;;;;;;4947353;28;20525;-61
2023/01/20 03:44:39;;;;;;;10.73;8.10;;;-2.00;99.90;;;;;;4950714;28;20448;-65
2023/01/20 03:47:47;;;;;;;10.05;6.38;;;-1.90;99.90;;;;;;4954524;28;20137;-64
2023/01/20 03:50:33;;;;;;;10.13;6.00;;;-1.90;99.90;;;;;;4952176;28;20050;-62
2023/01/20 03:53:26;;;;;;;8.73;6.43;;;-1.90;99.90;;;;;;4953404;28;20048;-61
2023/01/20 03:56:01;;;;;;;8.10;5.93;;;-1.90;99.90;;;;;;4937986;28;20393;-62
2023/01/20 03:58:34;;;;;;;9.90;6.43;;;-1.90;99.90;;;;;;4953947;28;20170;-62
2023/01/20 04:01:06;;;;;;;8.60;5.63;;;-1.90;99.90;;;;;;4949160;28;20138;-61
2023/01/20 04:03:47;;;;;;;9.68;5.18;;;-1.90;99.90;;;;;;4950806;28;20391;-61
2023/01/20 04:06:16;;;;;;;8.15;5.22;;;-1.90;99.90;;;;;;4950461;28;20532;-66
2023/01/20 04:08:48;;;;;;;9.27;8.30;;;-2.00;99.90;;;;;;4954884;28;20504;-61
2023/01/20 04:11:15;;;;;;;9.55;7.38;;;-1.90;99.90;;;;;;4947770;28;20070;-66
2023/01/20 04:13:42;;;;;;;8.88;6.22;;;-1.90;99.90;;;;;;4956830;28;20142;-62
2023/01/20 04:16:15;;;;;;;8.13;6.28;;;-1.90;99.90;;;;;;4955128;28;20506;-63
2023/01/20 04:18:45;;;;;;;15.07;7.38;;;-1.90;99.90;;;;;;4948368;28;20051;-60
2023/01/20 04:21:23;;;;;;;9.13;7.20;;;-1.90;99.90;;;;;;4956320;28;20083;-61
2023/01/20 04:24:00;;;;;;;10.63;7.03;;;-1.90;99.90;;;;;;4949092;28;20101;-60
2023/01/20 04:26:26;;;;;;;9.98;6.32;;;-1.80;99.90;;;;;;4945552;28;20051;-62
2023/01/20 04:28:53;;;;;;;11.88;6.65;;;-1.70;99.90;;;;;;4949215;28;20044;-60
2023/01/20 04:31:20;;;;;;;7.38;5.57;;;-1.70;99.90;;;;;;4952349;28;20051;-61
2023/01/20 04:33:57;;;;;;;10.32;6.63;;;-1.70;99.90;;;;;;4943751;28;20109;-64
2023/01/20 04:36:24;;;;;;;9.95;6.15;;;-1.70;99.90;;;;;;4954650;28;20051;-61
2023/01/20 04:38:50;;;;;;;9.52;5.47;;;-1.70;99.90;;;;;;4948602;28;20051;-60
2023/01/20 04:41:17;;;;;;;7.90;5.93;;;-1.70;99.90;;;;;;4949682;28;20055;-63
2023/01/20 04:43:45;;;;;;;12.98;8.02;;;-1.70;99.90;;;;;;4947724;28;20051;-61
2023/01/20 04:46:13;;;;;;;13.43;7.60;;;-1.70;99.90;;;;;;4948971;28;20142;-62
2023/01/20 04:48:40;;;;;;;8.02;6.10;;;-1.60;99.90;;;;;;4949160;28;20521;-61
2023/01/20 04:51:07;;;;;;;6.55;5.57;;;-1.70;99.90;;;;;;4949068;28;20087;-61
2023/01/20 04:53:34;;;;;;;10.05;6.65;;;-1.60;99.90;;;;;;4953283;28;20071;-62
2023/01/20 04:56:01;;;;;;;13.45;8.13;;;-1.70;99.90;;;;;;4945545;28;23268;-64
2023/01/20 04:58:28;;;;;;;9.05;7.00;;;-1.70;99.90;;;;;;4953114;28;20141;-60
2023/01/20 05:00:55;;;;;;;14.50;7.57;;;-1.70;99.90;;;;;;4958826;28;20386;-62
2023/01/20 05:03:22;;;;;;;8.70;6.20;;;-1.70;99.90;;;;;;4950089;28;20129;-60
2023/01/20 05:05:53;;;;;;;8.30;7.07;;;-1.70;99.90;;;;;;4948747;28;20050;-61
2023/01/20 05:08:20;;;;;;;8.68;5.55;;;-1.70;99.90;;;;;;4945853;28;20055;-61
2023/01/20 05:10:47;;;;;;;10.02;7.07;;;-1.70;99.90;;;;;;4949659;28;20066;-62
2023/01/20 05:13:14;;;;;;;10.57;7.28;;;-1.80;99.90;;;;;;4952286;28;20062;-61
2023/01/20 05:15:42;;;;;;;10.13;6.90;;;-1.70;99.90;;;;;;4950515;28;20062;-64
2023/01/20 05:18:09;;;;;;;10.30;6.72;;;-1.70;99.90;;;;;;4952187;28;20129;-62
2023/01/20 05:20:36;;;;;;;14.60;7.07;;;-1.70;99.90;;;;;;4952756;28;20077;-61
2023/01/20 05:23:03;;;;;;;11.73;7.30;;;-1.70;99.90;;;;;;4951881;28;20422;-69
2023/01/20 05:25:30;;;;;;;10.52;6.18;;;-1.70;99.90;;;;;;4950258;28;20067;-65
2023/01/20 05:27:58;;;;;;;8.60;6.68;;;-1.70;99.90;;;;;;4952015;28;20400;-60
2023/01/20 05:30:24;;;;;;;15.35;7.30;;;-1.70;99.90;;;;;;4950220;28;20062;-62
2023/01/20 05:32:51;;;;;;;14.02;7.00;;;-1.60;99.90;;;;;;4948267;28;20051;-67
2023/01/20 05:35:18;;;;;;;11.57;6.47;;;-1.60;99.90;;;;;;4950271;28;20130;-63
2023/01/20 05:37:45;;;;;;;8.77;6.10;;;-1.60;99.90;;;;;;4953068;28;20496;-61
2023/01/20 05:40:13;;;;;;;10.30;6.93;;;-1.60;99.90;;;;;;4951252;28;20145;-66
2023/01/20 05:42:39;;;;;;;11.90;7.78;;;-1.70;99.90;;;;;;4954112;28;20085;-62
2023/01/20 05:45:08;;;;;;;11.27;7.18;;;-1.70;99.90;;;;;;4951883;28;20089;-61
2023/01/20 05:47:35;;;;;;;8.18;6.65;;;-1.60;99.90;;;;;;4947241;28;20063;-61
2023/01/20 05:50:03;;;;;;;10.25;6.10;;;-1.70;99.90;;;;;;4950305;28;20078;-67
2023/01/20 05:52:30;;;;;;;10.82;7.32;;;-1.60;99.90;;;;;;4948245;28;20120;-61
2023/01/20 05:54:57;;;;;;;11.15;7.75;;;-1.60;99.90;;;;;;4953026;28;20050;-60
2023/01/20 05:57:24;;;;;;;14.43;7.43;;;-1.50;99.90;;;;;;4950283;28;20130;-62
2023/01/20 05:59:51;;;;;;;13.70;6.82;;;-1.50;99.90;;;;;;4950521;28;20043;-60
2023/01/20 06:02:19;;;;;;;10.95;7.00;;;-1.50;99.90;;;;;;4953319;28;20110;-63
2023/01/20 06:04:46;;;;;;;11.13;7.88;;;-1.40;99.90;;;;;;4945357;28;20059;-62
2023/01/20 06:07:14;;;;;;;9.63;7.13;;;-1.40;99.90;;;;;;4951574;28;20043;-62
2023/01/20 06:09:41;;;;;;;10.77;6.47;;;-1.40;99.90;;;;;;4949236;28;20417;-62
2023/01/20 06:12:08;;;;;;;13.10;7.57;;;-1.40;99.90;;;;;;4948231;28;20126;-62
2023/01/20 06:14:35;;;;;;;10.73;7.15;;;-1.30;99.90;;;;;;4950170;28;20058;-61
2023/01/20 06:17:01;;;;;;;13.93;7.57;;;-1.20;99.90;;;;;;4952418;28;20065;-62
2023/01/20 06:19:28;;;;;;;9.73;6.68;;;-1.20;99.90;;;;;;4945235;28;20051;-65
2023/01/20 06:21:55;;;;;;;10.95;6.35;;;-1.10;99.90;;;;;;4945903;28;20362;-61
2023/01/20 06:24:22;;;;;;;8.50;6.82;;;-1.10;99.90;;;;;;4951593;28;20054;-62
2023/01/20 06:26:50;;;;;;;9.70;6.10;;;-0.90;99.90;;;;;;4945004;28;20429;-61
2023/01/20 06:29:17;;;;;;;8.25;5.97;;;-0.90;99.90;;;;;;4949416;28;20081;-63
2023/01/20 06:31:44;;;;;;;10.27;6.53;;;-0.80;99.90;;;;;;4945709;28;20054;-62
2023/01/20 06:34:11;;;;;;;11.75;6.65;;;-0.70;99.90;;;;;;4955029;28;20486;-65
2023/01/20 06:36:38;;;;;;;10.02;7.38;;;-0.70;99.90;;;;;;4944462;28;20222;-62
2023/01/20 06:39:05;;;;;;;11.25;6.53;;;-0.70;99.90;;;;;;4953454;28;20057;-62
2023/01/20 06:41:32;;;;;;;13.32;7.68;;;-0.70;99.90;;;;;;4951182;28;20071;-61
2023/01/20 06:44:02;;;;;;;9.25;6.75;;;-0.60;99.90;;;;;;4952736;28;20051;-65
2023/01/20 06:46:29;;;;;;;12.07;7.67;;;-0.50;99.90;;;;;;4953123;28;20051;-65
2023/01/20 06:48:59;;;;;;;11.48;6.85;;;-0.50;99.90;;;;;;4951397;28;20748;-63
2023/01/20 06:51:28;;;;;;;9.98;5.68;;;-0.50;99.90;;;;;;4951058;28;20078;-66
2023/01/20 06:53:56;;;;;;;10.93;6.60;;;-0.40;99.90;;;;;;4950781;28;20039;-63
2023/01/20 06:56:23;;;;;;;11.05;6.30;;;-0.30;99.90;;;;;;4952467;28;20106;-63
2023/01/20 06:58:50;;;;;;;8.88;5.43;;;-0.30;99.90;;;;;;4953471;28;20154;-61
2023/01/20 07:01:26;;;;;;;8.35;5.55;;;-0.20;99.90;;;;;;4952413;28;20050;-62
2023/01/20 07:03:53;;;;;;;11.75;6.72;;;-0.20;99.90;;;;;;4942688;28;20051;-63
2023/01/20 07:06:37;;;;;;;10.73;6.50;;;-0.20;99.90;;;;;;4950945;28;20070;-68
2023/01/20 07:09:07;;;;;;;7.68;6.47;;;-0.20;99.90;;;;;;4950999;28;20046;-63
2023/01/20 07:11:34;;;;;;;6.50;5.15;;;-0.20;99.90;;;;;;4947569;28;20074;-61
2023/01/20 07:14:02;;;;;;;11.15;6.07;;;-0.20;99.90;;;;;;4950816;28;20469;-66
2023/01/20 07:16:30;;;;;;;6.57;5.55;;;-0.20;99.90;;;;;;4959097;28;20046;-65
2023/01/20 07:18:57;;;;;;;9.43;5.80;;;-0.10;99.90;;;;;;4953210;28;20055;-63
2023/01/20 07:21:24;;;;;;;8.73;5.05;;;-0.20;99.90;;;;;;4952848;28;20134;-63
2023/01/20 07:23:53;;;;;;;8.85;5.15;;;-0.20;99.90;;;;;;4946888;28;20425;-63
2023/01/20 07:26:25;;;;;;;11.45;6.35;;;-0.30;99.90;;;;;;4949548;28;20370;-62
2023/01/20 07:28:52;;;;;;;8.35;5.80;;;-0.30;99.90;;;;;;4949422;28;20051;-64
2023/01/20 07:31:24;;;;;;;7.22;4.88;;;-0.30;99.90;;;;;;4950904;28;20125;-64
2023/01/20 07:33:53;;;;;;;7.03;5.78;;;-0.40;99.90;;;;;;4949716;28;20054;-63
2023/01/20 07:36:20;;;;;;;6.00;4.45;;;-0.40;99.90;;;;;;4947647;28;20047;-61
2023/01/20 07:38:48;;;;;;;7.82;6.10;;;-0.40;99.90;;;;;;4945018;28;20630;-66
2023/01/20 07:41:18;;;;;;;7.15;5.22;;;-0.40;99.90;;;;;;4963639;28;20051;-61
2023/01/20 07:43:47;;;;;;;8.25;6.43;;;-0.50;99.90;;;;;;4947118;28;20151;-63
2023/01/20 07:46:15;;;;;;;10.23;5.28;;;-0.50;99.90;;;;;;4965876;28;20117;-61
2023/01/20 07:48:42;;;;;;;9.40;5.38;;;-0.50;99.90;;;;;;4948176;28;20060;-65
2023/01/20 07:51:11;;;;;;;6.28;5.63;;;-0.50;99.90;;;;;;4952668;28;20047;-65
2023/01/20 07:53:45;;;;;;;8.40;6.90;;;-0.50;99.90;;;;;;4948402;28;20054;-61
2023/01/20 07:56:14;;;;;;;8.70;5.47;;;-0.50;99.90;;;;;;4945526;28;20054;-62
2023/01/20 07:58:44;;;;;;;7.38;4.80;;;-0.50;99.90;;;;;;4953865;28;20051;-62
2023/01/20 08:01:14;;;;;;;16.20;6.22;;;-0.50;99.90;;;;;;4944471;28;20114;-64
2023/01/20 08:03:42;;;;;;;11.80;6.20;;;-0.50;99.90;;;;;;4954641;28;20050;-62
2023/01/20 08:06:11;;;;;;;7.88;6.40;;;-0.40;99.90;;;;;;4944797;28;20047;-64
2023/01/20 08:08:38;;;;;;;9.27;5.70;;;-0.40;99.90;;;;;;4953044;28;20178;-62
2023/01/20 08:11:06;;;;;;;11.93;6.53;;;-0.30;99.90;;;;;;4947811;28;20466;-64
2023/01/20 08:13:34;;;;;;;10.35;7.45;;;-0.30;99.90;;;;;;4949901;28;20142;-62
2023/01/20 08:16:07;;;;;;;8.82;6.70;;;-0.30;99.90;;;;;;4948160;28;20078;-62
2023/01/20 08:18:35;;;;;;;9.18;5.93;;;-0.30;99.90;;;;;;4947357;28;20162;-65
2023/01/20 08:21:07;;;;;;;9.38;6.20;;;-0.30;99.90;;;;;;4952934;28;20073;-61
2023/01/20 08:23:34;;;;;;;7.28;5.97;;;-0.30;99.90;;;;;;4949956;28;20039;-64
2023/01/20 08:26:04;;;;;;;9.93;5.82;;;-0.30;99.90;;;;;;4950970;28;20082;-65
2023/01/20 08:28:33;;;;;;;9.25;6.60;;;-0.30;99.90;;;;;;4950868;28;20051;-61
2023/01/20 08:31:14;;;;;;;10.95;7.38;;;-0.30;99.90;;;;;;4942907;28;20112;-65
2023/01/20 08:33:42;;;;;;;8.35;6.28;;;-0.30;99.90;;;;;;4948361;28;20087;-62
2023/01/20 08:36:16;;;;;;;11.73;8.27;;;-0.30;99.90;;;;;;4946484;28;20085;-63
2023/01/20 08:38:43;;;;;;;9.43;6.25;;;-0.30;99.90;;;;;;4949470;28;20058;-64
2023/01/20 08:41:13;;;;;;;9.70;6.38;;;-0.30;99.90;;;;;;4947652;28;20450;-61
2023/01/20 08:43:41;;;;;;;10.20;7.80;;;-0.30;99.90;;;;;;4949254;28;20425;-62
2023/01/20 08:46:12;;;;;;;10.00;7.22;;;-0.30;99.90;;;;;;4945335;28;20126;-62
2023/01/20 08:48:40;;;;;;;8.32;6.65;;;-0.30;99.90;;;;;;4950344;28;20141;-64
2023/01/20 08:51:13;;;;;;;12.40;7.85;;;-0.20;99.90;;;;;;4953775;28;20061;-65
2023/01/20 08:53:41;;;;;;;12.35;7.30;;;-0.20;99.90;;;;;;4952787;28;20098;-62
2023/01/20 08:56:08;;;;;;;10.57;7.55;;;-0.20;99.90;;;;;;4947520;28;20043;-61
2023/01/20 08:58:35;;;;;;;12.00;8.68;;;-0.20;99.90;;;;;;4952640;28;20047;-62
2023/01/20 09:01:10;;;;;;;10.98;6.07;;;-0.20;99.90;;;;;;4955386;28;20057;-66
2023/01/20 09:03:38;;;;;;;13.20;9.80;;;-0.20;99.90;;;;;;4957742;28;20047;-65
2023/01/20 09:06:06;;;;;;;11.40;6.82;;;-0.20;99.90;;;;;;4949420;28;20149;-61
2023/01/20 09:08:33;;;;;;;11.70;7.50;;;-0.20;99.90;;;;;;4950980;28;20083;-62
2023/01/20 09:11:06;;;;;;;12.57;8.45;;;-0.10;99.90;;;;;;4954121;28;20169;-66
2023/01/20 09:13:33;;;;;;;10.68;8.38;;;-0.10;99.90;;;;;;4956143;28;20105;-63
2023/01/20 09:16:00;;;;;;;14.38;7.65;;;-0.10;99.90;;;;;;4947209;28;20049;-64
2023/01/20 09:18:27;;;;;;;10.75;7.60;;;0.00;99.90;;;;;;4955665;28;20361;-65
2023/01/20 09:20:55;;;;;;;10.00;6.35;;;0.00;99.90;;;;;;4949426;28;20140;-62
2023/01/20 09:23:22;;;;;;;7.55;6.15;;;0.10;99.90;;;;;;4954992;28;20142;-65
2023/01/20 09:25:49;;;;;;;9.13;6.13;;;0.20;99.90;;;;;;4946272;28;20079;-63
2023/01/20 09:28:16;;;;;;;8.77;5.80;;;0.30;99.90;;;;;;4955917;28;20090;-62
2023/01/20 09:30:43;;;;;;;7.18;5.72;;;0.40;99.90;;;;;;4948524;28;20098;-64
2023/01/20 09:33:11;;;;;;;10.23;6.10;;;0.40;99.90;;;;;;4952964;28;20485;-66
2023/01/20 09:35:38;;;;;;;6.90;5.43;;;0.50;99.90;;;;;;4953145;28;20505;-62
2023/01/20 09:44:20;;;;;;;10.02;4.95;;;0.70;99.90;;;;;;4952014;28;20497;-64
2023/01/20 09:47:20;;;;;;;6.38;5.70;;;0.70;99.90;;;;;;4951392;28;20086;-66
2023/01/20 09:53:29;;;;;;;8.77;6.00;;;0.60;99.90;;;;;;4953925;28;20490;-70
2023/01/20 09:55:58;;;;;;;11.60;6.03;;;0.70;99.90;;;;;;4949639;28;20058;-65
2023/01/20 09:58:34;;;;;;;7.27;5.87;;;0.70;99.90;;;;;;4954280;28;20141;-63
2023/01/20 10:01:29;;;;;;;6.53;5.22;;;0.70;99.90;;;;;;4956464;28;20078;-65
2023/01/20 10:04:05;;;;;;;11.70;7.07;;;0.60;99.90;;;;;;4940315;28;20051;-63
2023/01/20 10:06:56;;;;;;;10.82;6.18;;;0.70;99.90;;;;;;4956117;28;20051;-65
2023/01/20 10:09:44;;;;;;;9.57;6.88;;;0.80;99.90;;;;;;4952888;28;20079;-63
2023/01/20 10:12:14;;;;;;;12.43;5.82;;;0.80;99.90;;;;;;4949038;28;20462;-67
2023/01/20 10:14:45;;;;;;;9.23;6.25;;;0.80;99.90;;;;;;4965522;28;20325;-63
2023/01/20 10:17:22;;;;;;;8.48;6.82;;;0.90;99.90;;;;;;4954116;28;20737;-65
2023/01/20 10:20:03;;;;;;;15.18;7.38;;;0.90;99.90;;;;;;4946874;28;20078;-64
2023/01/20 10:22:41;;;;;;;9.02;6.20;;;1.00;99.90;;;;;;4955087;28;20066;-64
2023/01/20 10:25:11;;;;;;;9.25;6.30;;;1.00;99.90;;;;;;4950784;28;20054;-66
2023/01/20 10:27:48;;;;;;;12.55;7.82;;;1.10;99.90;;;;;;4953342;28;20150;-67
2023/01/20 10:30:15;;;;;;;9.00;7.28;;;1.00;99.90;;;;;;4946375;28;20044;-61
2023/01/20 10:33:02;;;;;;;7.03;5.57;;;1.00;99.90;;;;;;4946015;28;20052;-65
2023/01/20 10:35:35;;;;;;;10.00;6.90;;;1.10;99.90;;;;;;4944563;28;20470;-68
2023/01/20 10:38:07;;;;;;;7.13;5.82;;;1.10;99.90;;;;;;4951124;28;20076;-67
2023/01/20 10:40:45;;;;;;;10.70;6.80;;;1.10;99.90;;;;;;4953023;28;20047;-64
2023/01/20 10:43:14;;;;;;;9.75;6.90;;;1.10;99.90;;;;;;4963608;28;20402;-65
2023/01/20 10:45:47;;;;;;;10.07;7.25;;;1.20;99.90;;;;;;4953637;28;20137;-65
2023/01/20 10:48:17;;;;;;;9.73;6.38;;;1.20;99.90;;;;;;4948354;28;20130;-65
2023/01/20 10:51:03;;;;;;;9.40;6.68;;;1.20;99.90;;;;;;4949880;28;20331;-62
2023/01/20 10:53:33;;;;;;;8.85;6.72;;;1.30;99.90;;;;;;4949329;28;20043;-59
2023/01/20 10:56:03;;;;;;;9.13;5.45;;;1.40;99.90;;;;;;4947787;28;20074;-61
2023/01/20 10:58:39;;;;;;;9.98;7.05;;;1.40;99.90;;;;;;4949043;28;20429;-61
2023/01/20 11:01:09;;;;;;;8.75;6.07;;;1.50;99.90;;;;;;4942840;28;20051;-66
2023/01/20 11:03:41;;;;;;;8.20;6.43;;;1.60;99.90;;;;;;4948661;28;20047;-63
2023/01/20 11:06:20;;;;;;;8.07;6.35;;;1.60;99.90;;;;;;4948218;28;20432;-67
2023/01/20 11:08:48;;;;;;;7.87;6.43;;;1.70;99.90;;;;;;4944426;28;20050;-61
2023/01/20 11:11:21;;;;;;;7.38;6.32;;;1.80;99.90;;;;;;4945324;28;20289;-60
2023/01/20 11:13:53;;;;;;;8.95;5.97;;;1.80;99.90;;;;;;4946212;28;20149;-62
2023/01/20 11:16:24;;;;;;;13.10;6.78;;;1.90;99.90;;;;;;4945632;28;20533;-64
2023/01/20 11:19:00;;;;;;;8.85;5.88;;;1.90;99.90;;;;;;4946338;28;20040;-61
2023/01/20 11:21:30;;;;;;;6.45;5.30;;;2.00;99.90;;;;;;4951929;28;20146;-66
2023/01/20 11:23:58;;;;;;;7.03;4.70;;;2.00;99.90;;;;;;4952833;28;20078;-63
2023/01/20 11:26:31;;;;;;;8.55;5.68;;;2.10;99.90;;;;;;4947244;28;20146;-61
2023/01/20 11:29:10;;;;;;;9.65;5.45;;;2.10;99.90;;;;;;4950525;28;20527;-62
2023/01/20 11:31:45;;;;;;;6.85;5.75;;;2.20;99.90;;;;;;4948494;28;20166;-63
2023/01/20 11:34:24;;;;;;;6.00;5.28;;;2.20;99.90;;;;;;4946254;28;20081;-62
2023/01/20 11:37:15;;;;;;;8.70;6.28;;;2.30;99.90;;;;;;4961684;28;20474;-62
2023/01/20 11:39:53;;;;;;;9.35;6.80;;;2.30;99.90;;;;;;4943363;28;20043;-64
2023/01/20 11:42:23;;;;;;;9.63;5.72;;;2.40;99.90;;;;;;4943188;28;20089;-67
2023/01/20 11:44:56;;;;;;;;;;;2.50;99.90;;;;;;4947272;28;20051;-61
2023/01/20 11:47:34;;;;;;;12.38;6.72;;;2.40;99.90;;;;;;4956691;28;19922;-63
2023/01/20 11:50:03;;;;;;;12.93;6.90;;;2.50;99.90;;;;;;4949297;28;20185;-64
2023/01/20 11:52:33;;;;;;;9.40;5.80;;;2.50;99.90;;;;;;4945623;28;20055;-63
2023/01/20 11:55:11;;;;;;;6.68;5.55;;;2.50;99.90;;;;;;4948477;28;20091;-66
2023/01/20 11:57:59;;;;;;;7.82;4.63;;;2.50;99.90;;;;;;4944196;28;20158;-61
2023/01/20 12:00:42;;;;;;;8.68;5.75;;;2.40;99.90;;;;;;4946941;28;20134;-62
2023/01/20 12:03:09;;;;;;;8.27;6.28;;;2.40;99.90;;;;;;4948622;28;20137;-62
2023/01/20 12:06:06;;;;;;;7.38;5.30;;;2.40;99.90;;;;;;4948843;28;20529;-63
2023/01/20 12:08:42;;;;;;;8.52;6.65;;;2.40;99.90;;;;;;4944582;28;20573;-61
2023/01/20 12:11:13;;;;;;;7.38;6.07;;;2.40;99.90;;;;;;4951144;28;20057;-66
2023/01/20 12:16:37;;;;;;;9.65;6.43;;;2.50;99.90;;;;;;4949574;28;20047;-63
2023/01/20 12:19:14;;;;;;;8.15;5.75;;;2.50;99.90;;;;;;4943876;28;20179;-63
2023/01/20 12:21:47;;;;;;;10.10;6.80;;;2.50;99.90;;;;;;4873572;28;20056;-64
2023/01/20 12:25:06;;;;;;;6.95;6.07;;;2.50;99.90;;;;;;4947427;28;20050;-63
2023/01/20 12:27:26;;;;;;;9.23;6.15;;;2.50;99.90;;;;;;4947233;28;20079;-63
2023/01/20 12:30:03;;;;;;;11.45;6.57;;;2.50;99.90;;;;;;4936830;28;20485;-69
2023/01/20 12:32:32;;;;;;;7.93;6.20;;;2.50;99.90;;;;;;4942970;28;20532;-65
2023/01/20 12:34:59;;;;;;;8.23;6.28;;;2.50;99.90;;;;;;4956617;28;20062;-69
2023/01/20 12:37:51;;;;;;;8.98;6.50;;;2.40;99.90;;;;;;4954403;28;20072;-62
2023/01/20 12:40:21;;;;;;;9.00;6.32;;;2.40;99.90;;;;;;4952925;28;20059;-67
2023/01/20 12:43:15;;;;;;;10.90;6.70;;;2.40;99.90;;;;;;4950259;28;20580;-62
2023/01/20 12:46:04;;;;;;;8.25;7.45;;;2.40;99.90;;;;;;4951318;28;20051;-67
2023/01/20 12:48:57;;;;;;;7.13;5.88;;;2.40;99.90;;;;;;4949114;28;20109;-61
2023/01/20 12:51:33;;;;;;;11.68;8.30;;;2.40;99.90;;;;;;4951497;28;20465;-62
2023/01/20 12:54:13;;;;;;;9.48;7.63;;;2.40;99.90;;;;;;4949352;28;20503;-63
2023/01/20 12:56:55;;;;;;;11.65;8.13;;;2.40;99.90;;;;;;4949828;28;20416;-65
2023/01/20 13:00:08;;;;;;;9.38;6.63;;;2.40;99.90;;;;;;4952342;28;20054;-63
2023/01/20 13:03:19;;;;;;;7.32;6.47;;;2.40;99.90;;;;;;4947928;28;20051;-63
2023/01/20 13:05:59;;;;;;;8.40;6.30;;;2.40;99.90;;;;;;4878283;29;20053;-64
2023/01/20 13:08:46;;;;;;;9.02;7.43;;;2.40;99.90;;;;;;4950905;28;20047;-62
2023/01/20 13:11:36;;;;;;;9.65;6.72;;;2.50;99.90;;;;;;4953805;28;20078;-63
2023/01/20 13:14:10;;;;;;;9.27;6.43;;;2.50;99.90;;;;;;4952207;28;20043;-62
2023/01/20 13:16:43;;;;;;;12.10;7.15;;;2.60;99.90;;;;;;4950088;28;20047;-62
2023/01/20 13:19:27;;;;;;;9.63;7.35;;;2.60;99.90;;;;;;4952251;28;20074;-63
2023/01/20 13:21:54;;;;;;;12.75;7.38;;;2.60;99.90;;;;;;4948241;28;20051;-64
2023/01/20 13:24:33;;;;;;;10.27;7.20;;;2.60;99.90;;;;;;4950802;28;20051;-66